MSC Giovanna — 3FRB9 — position and weather

sailwx.info

Track history (hours):
 
Tides and Currents Weather Stations Pressure Air Temp Water Temp Dewpoint Dewpoint Depression Visibility Wind Speed Wind Dir Waves Ship Positions

MSC Giovanna

Last reported at 2017-Aug-16 03:30 UTC. Time now 2017-Aug-18 05:00 UTC.
Position N 32°24' E 032°02'.

Length 178 m; draft 7.9 m.

Type: Ship (hazmat cat A). MMSI: 357702000.

Date/timePositionNaut miles runAvg speedWind from/ knotsBaromVisibWave heightAir tempDewpointWater temp
2017-Aug-16 03:30N 32°24' E 032°02'814.0
2017-Aug-16 02:56N 32°27' E 032°10'814.1
2017-Aug-16 02:21N 32°29' E 032°20'514.2
2017-Aug-16 01:59N 32°31' E 032°25'2814.1
2017-Aug-16 00:01N 32°41' E 032°56'014.4
2017-Aug-15 23:59N 32°42' E 032°56'914.3
2017-Aug-15 23:23N 32°45' E 033°06'514.3
2017-Aug-15 23:00N 32°47' E 033°12'714.3
2017-Aug-15 22:30N 32°49' E 033°20'714.3
2017-Aug-15 22:00N 32°52' E 033°28'714.3
2017-Aug-15 21:30N 32°54' E 033°36'714.3
2017-Aug-15 21:00N 32°57' E 033°44'814.4
2017-Aug-15 20:28N 32°60' E 033°52'714.3
2017-Aug-15 20:00N 33°02' E 033°60'714.0
2017-Aug-15 19:30N 33°01' E 034°08'714.1
2017-Aug-15 19:00N 32°59' E 034°16'814.1
2017-Aug-15 18:28N 32°58' E 034°25'614.0
2017-Aug-15 18:00N 32°57' E 034°33'714.0
2017-Aug-15 17:30N 32°56' E 034°41'1113.9
2017-Aug-15 16:42N 32°53' E 034°54'313.8
2017-Aug-15 16:30N 32°52' E 034°57'4 8.3
2017-Aug-15 16:00N 32°49' E 035°01'0 0.0
2017-Aug-15 09:56N 32°49' E 035°01'1 0.1
2017-Aug-15 00:32N 32°50' E 035°01'0 6.7
2017-Aug-15 00:28N 32°50' E 035°01'6 7.7
2017-Aug-14 23:40N 32°52' E 034°54'211.3
2017-Aug-14 23:30N 32°52' E 034°52'713.6
2017-Aug-14 23:00N 32°46' E 034°49'714.3
2017-Aug-14 22:30N 32°39' E 034°46'714.3
2017-Aug-14 22:00N 32°33' E 034°44'714.5
2017-Aug-14 21:30N 32°26' E 034°41'714.4
2017-Aug-14 21:00N 32°19' E 034°38'714.3
2017-Aug-14 20:30N 32°12' E 034°36'714.3
2017-Aug-14 20:00N 32°05' E 034°33'714.3
2017-Aug-14 19:30N 31°58' E 034°30'10 9.2
2017-Aug-14 18:27N 31°51' E 034°38'2 2.0
2017-Aug-14 17:22N 31°49' E 034°39'0 0.0
2017-Aug-14 15:56N 31°49' E 034°39'0 0.0
2017-Aug-14 15:29N 31°49' E 034°39'0 0.0
2017-Aug-14 14:51N 31°49' E 034°39'0 0.0
2017-Aug-14 14:08N 31°49' E 034°39'0 0.0
2017-Aug-14 13:59N 31°49' E 034°39'0 0.0
2017-Aug-14 13:27N 31°49' E 034°39'0 0.0
2017-Aug-14 12:58N 31°49' E 034°39'0 0.0
2017-Aug-14 12:30N 31°49' E 034°39'0 0.0
2017-Aug-12 20:20N 31°49' E 034°38'2 3.1
2017-Aug-12 19:47N 31°51' E 034°38'3 5.5
2017-Aug-12 19:13N 31°52' E 034°35'411.6
2017-Aug-12 18:53N 31°52' E 034°30'713.5
2017-Aug-12 18:24N 31°55' E 034°23'615.3
2017-Aug-12 18:00N 31°58' E 034°17'815.5
2017-Aug-12 17:30N 32°01' E 034°09'714.0
2017-Aug-12 17:00N 32°08' E 034°07'815.6
2017-Aug-12 16:30N 32°16' E 034°09'1515.5
2017-Aug-12 15:34N 32°30' E 034°11'115.4
2017-Aug-12 15:30N 32°31' E 034°11'1015.3
2017-Aug-12 14:51N 32°41' E 034°13'615.4
2017-Aug-12 14:29N 32°47' E 034°13'815.3
2017-Aug-12 13:59N 32°54' E 034°15'1215.5
2017-Aug-12 13:12N 33°06' E 034°17'315.7
2017-Aug-12 13:00N 33°09' E 034°17'815.6
2017-Aug-12 12:30N 33°17' E 034°19'1315.5
2017-Aug-12 11:41N 33°30' E 034°21'3315.2
2017-Aug-12 09:29N 34°03' E 034°26'714.5
2017-Aug-12 09:00N 34°10' E 034°28'714.6
2017-Aug-12 08:30N 34°17' E 034°29'  
2017-Aug-09 17:14N 35°56' E 032°57'515.0
2017-Aug-09 16:54N 35°55' E 032°51'614.6
2017-Aug-09 16:30N 35°54' E 032°44'8514.0
2017-Aug-09 10:27N 35°58' E 030°59'614.6
2017-Aug-09 10:01N 35°58' E 030°51'714.5
2017-Aug-09 09:31N 35°59' E 030°42'714.1
2017-Aug-09 09:00N 35°59' E 030°33'713.6
2017-Aug-09 08:30N 35°59' E 030°25'1313.3
2017-Aug-09 07:31N 36°00' E 030°09'013.3
2017-Aug-09 07:30N 36°00' E 030°08'1213.5
2017-Aug-09 06:38N 36°01' E 029°54'213.3
2017-Aug-09 06:30N 36°01' E 029°52'1612.8
2017-Aug-09 05:17N 36°02' E 029°33'19313.0
2017-Aug-08 14:32N 37°24' E 025°55'014.7
2017-Aug-08 14:30N 37°24' E 025°55'714.1
2017-Aug-08 14:01N 37°31' E 025°52'714.1
2017-Aug-08 13:30N 37°38' E 025°51'  
Track history (hours):
 
Tides and Currents Weather Stations Pressure Air Temp Water Temp Dewpoint Dewpoint Depression Visibility Wind Speed Wind Dir Waves Ship Positions

MSC Giovanna

Last reported at 2017-Aug-16 03:30 UTC. Time now 2017-Aug-18 05:00 UTC.
Position N 32°24' E 032°02'.

Length 178 m; draft 7.9 m.

Type: Ship (hazmat cat A). MMSI: 357702000.

Date/timePositionNaut miles runAvg speedWind from/ knotsBaromVisibWave heightAir tempDewpointWater temp
2017-Aug-16 03:30N 32°24' E 032°02'814.0
2017-Aug-16 02:56N 32°27' E 032°10'814.1
2017-Aug-16 02:21N 32°29' E 032°20'514.2
2017-Aug-16 01:59N 32°31' E 032°25'2814.1
2017-Aug-16 00:01N 32°41' E 032°56'014.4
2017-Aug-15 23:59N 32°42' E 032°56'914.3
2017-Aug-15 23:23N 32°45' E 033°06'514.3
2017-Aug-15 23:00N 32°47' E 033°12'714.3
2017-Aug-15 22:30N 32°49' E 033°20'714.3
2017-Aug-15 22:00N 32°52' E 033°28'714.3
2017-Aug-15 21:30N 32°54' E 033°36'714.3
2017-Aug-15 21:00N 32°57' E 033°44'814.4
2017-Aug-15 20:28N 32°60' E 033°52'714.3
2017-Aug-15 20:00N 33°02' E 033°60'714.0
2017-Aug-15 19:30N 33°01' E 034°08'714.1
2017-Aug-15 19:00N 32°59' E 034°16'814.1
2017-Aug-15 18:28N 32°58' E 034°25'614.0
2017-Aug-15 18:00N 32°57' E 034°33'714.0
2017-Aug-15 17:30N 32°56' E 034°41'1113.9
2017-Aug-15 16:42N 32°53' E 034°54'313.8
2017-Aug-15 16:30N 32°52' E 034°57'4 8.3
2017-Aug-15 16:00N 32°49' E 035°01'0 0.0
2017-Aug-15 09:56N 32°49' E 035°01'1 0.1
2017-Aug-15 00:32N 32°50' E 035°01'0 6.7
2017-Aug-15 00:28N 32°50' E 035°01'6 7.7
2017-Aug-14 23:40N 32°52' E 034°54'211.3
2017-Aug-14 23:30N 32°52' E 034°52'713.6
2017-Aug-14 23:00N 32°46' E 034°49'714.3
2017-Aug-14 22:30N 32°39' E 034°46'714.3
2017-Aug-14 22:00N 32°33' E 034°44'714.5
2017-Aug-14 21:30N 32°26' E 034°41'714.4
2017-Aug-14 21:00N 32°19' E 034°38'714.3
2017-Aug-14 20:30N 32°12' E 034°36'714.3
2017-Aug-14 20:00N 32°05' E 034°33'714.3
2017-Aug-14 19:30N 31°58' E 034°30'10 9.2
2017-Aug-14 18:27N 31°51' E 034°38'2 2.0
2017-Aug-14 17:22N 31°49' E 034°39'0 0.0
2017-Aug-14 15:56N 31°49' E 034°39'0 0.0
2017-Aug-14 15:29N 31°49' E 034°39'0 0.0
2017-Aug-14 14:51N 31°49' E 034°39'0 0.0
2017-Aug-14 14:08N 31°49' E 034°39'0 0.0
2017-Aug-14 13:59N 31°49' E 034°39'0 0.0
2017-Aug-14 13:27N 31°49' E 034°39'0 0.0
2017-Aug-14 12:58N 31°49' E 034°39'0 0.0
2017-Aug-14 12:30N 31°49' E 034°39'0 0.0
2017-Aug-12 20:20N 31°49' E 034°38'2 3.1
2017-Aug-12 19:47N 31°51' E 034°38'3 5.5
2017-Aug-12 19:13N 31°52' E 034°35'411.6
2017-Aug-12 18:53N 31°52' E 034°30'713.5
2017-Aug-12 18:24N 31°55' E 034°23'615.3
2017-Aug-12 18:00N 31°58' E 034°17'815.5
2017-Aug-12 17:30N 32°01' E 034°09'714.0
2017-Aug-12 17:00N 32°08' E 034°07'815.6
2017-Aug-12 16:30N 32°16' E 034°09'1515.5
2017-Aug-12 15:34N 32°30' E 034°11'115.4
2017-Aug-12 15:30N 32°31' E 034°11'1015.3
2017-Aug-12 14:51N 32°41' E 034°13'615.4
2017-Aug-12 14:29N 32°47' E 034°13'815.3
2017-Aug-12 13:59N 32°54' E 034°15'1215.5
2017-Aug-12 13:12N 33°06' E 034°17'315.7
2017-Aug-12 13:00N 33°09' E 034°17'815.6
2017-Aug-12 12:30N 33°17' E 034°19'1315.5
2017-Aug-12 11:41N 33°30' E 034°21'3315.2
2017-Aug-12 09:29N 34°03' E 034°26'714.5
2017-Aug-12 09:00N 34°10' E 034°28'714.6
2017-Aug-12 08:30N 34°17' E 034°29'  
2017-Aug-09 17:14N 35°56' E 032°57'515.0
2017-Aug-09 16:54N 35°55' E 032°51'614.6
2017-Aug-09 16:30N 35°54' E 032°44'8514.0
2017-Aug-09 10:27N 35°58' E 030°59'614.6
2017-Aug-09 10:01N 35°58' E 030°51'714.5
2017-Aug-09 09:31N 35°59' E 030°42'714.1
2017-Aug-09 09:00N 35°59' E 030°33'713.6
2017-Aug-09 08:30N 35°59' E 030°25'1313.3
2017-Aug-09 07:31N 36°00' E 030°09'013.3
2017-Aug-09 07:30N 36°00' E 030°08'1213.5
2017-Aug-09 06:38N 36°01' E 029°54'213.3
2017-Aug-09 06:30N 36°01' E 029°52'1612.8
2017-Aug-09 05:17N 36°02' E 029°33'19313.0
2017-Aug-08 14:32N 37°24' E 025°55'014.7
2017-Aug-08 14:30N 37°24' E 025°55'714.1
2017-Aug-08 14:01N 37°31' E 025°52'714.1
2017-Aug-08 13:30N 37°38' E 025°51'  

Dump ship's entire track history